Thunder radar more information blitzortung!


Radar de pluja more information rain snow radar


Visita la nostra xarxa de llocs de meteo:

Template documentation
and downloads

And another site



No particular awareness of the weather is required.    There are no Weather-warnings

Pagina Historial Weather Underground text

Diari Resum Desembre 7, 2017 Unitats:  Imperial    Mètric   Tant
« Previous Dia
SegĂźent Dia »
Diari Setmana Mensual Anual Personalitzada
  Maxima: Minima: Media:
Temperatura: TemperatureC °F 0.9 °F 7.4 °F
Punt de rosada: DewpointC °F -4.3 °F 0.3 °F
Humitat: Humidity % 55 % 61 %
Wind Speed: WindSpeedKMH mph 0.0 mph 2.6 mph
RĂ fegues de vent: WindSpeedGustKMH mph - -
Vent:- - SE
Pression baro: PressurehPa in 1023.9 in -
Precipitacions: 0.0 in    
Historical Graphs
 
 
Dades de taula per Desembre 7, 2017
Temps Temperatura Punt de rosada Pression baro Vent Wind Speed RĂ fegues de vent Humitat Rainfall Rate (Hourly)
TemperatureC °F DewpointC °F PressurehPa in Calm     Humidity % HourlyPrecipMM in
00:02 3.0 °F -1.7 °F 1032.1 in NNE 3.7 mph 3.7 mph 71 % 0.0 in
00:05 1.3 °F -2.8 °F 1030.0 in WNW 1.6 mph 3.2 mph 74 % 0.0 in
00:07 3.0 °F -1.7 °F 1032.1 in NNE 3.7 mph 3.7 mph 71 % 0.0 in
00:15 1.3 °F -2.7 °F 1030.0 in Calm   3.2 mph 75 % 0.0 in
00:25 1.3 °F -2.7 °F 1030.7 in WSW 3.2 mph 3.2 mph 75 % 0.0 in
00:35 1.3 °F -2.7 °F 1030.0 in Calm   1.6 mph 75 % 0.0 in
00:45 1.2 °F -2.7 °F 1030.0 in Calm   1.6 mph 75 % 0.0 in
00:55 1.2 °F -2.7 °F 1030.0 in Calm   1.6 mph 75 % 0.0 in
01:05 1.3 °F -2.4 °F 1030.0 in Calm     76 % 0.0 in
01:15 1.3 °F -2.4 °F 1030.0 in Calm     76 % 0.0 in
01:25 1.2 °F -2.6 °F 1030.0 in Calm     76 % 0.0 in
01:35 1.1 °F -2.7 °F 1030.0 in Calm   1.6 mph 76 % 0.0 in
01:45 1.0 °F -2.8 °F 1030.0 in Calm     76 % 0.0 in
01:55 1.0 °F -2.8 °F 1030.0 in NNW 1.6 mph 3.2 mph 76 % 0.0 in
02:05 1.0 °F -2.8 °F 1030.0 in North 1.6 mph 1.6 mph 76 % 0.0 in
02:15 1.0 °F -2.8 °F 1030.0 in Calm     76 % 0.0 in
02:25 0.9 °F -2.8 °F 1030.0 in Calm     76 % 0.0 in
02:35 1.0 °F -2.8 °F 1030.0 in Calm     76 % 0.0 in
02:45 1.3 °F -2.3 °F 1030.0 in NNE 1.6 mph 3.2 mph 77 % 0.0 in
02:55 1.9 °F -1.7 °F 1030.0 in Calm   1.6 mph 77 % 0.0 in
03:05 2.4 °F -1.2 °F 1030.0 in ENE 1.6 mph 1.6 mph 77 % 0.0 in
03:15 2.3 °F -1.5 °F 1030.0 in ENE 3.2 mph 3.2 mph 76 % 0.0 in
03:25 2.8 °F -1.0 °F 1030.7 in East 1.6 mph 3.2 mph 76 % 0.0 in
03:35 2.9 °F -1.1 °F 1030.7 in East 3.2 mph 3.2 mph 75 % 0.0 in
03:45 2.7 °F -1.5 °F 1030.7 in Calm   3.2 mph 74 % 0.0 in
03:55 3.1 °F -1.1 °F 1030.7 in ESE 1.6 mph 3.2 mph 74 % 0.0 in
04:05 3.7 °F -0.7 °F 1030.7 in Calm   3.2 mph 73 % 0.0 in
04:15 4.1 °F -0.5 °F 1030.7 in ESE 3.2 mph 3.2 mph 72 % 0.0 in
04:25 4.3 °F -0.3 °F 1030.7 in SSW 1.6 mph 3.2 mph 72 % 0.0 in
04:35 4.4 °F -0.6 °F 1030.7 in SSW 3.2 mph 3.2 mph 70 % 0.0 in
10:44 4.9 °F -0.3 °F 1030.7 in SW 2.6 mph 2.6 mph 69 % 0.0 in
10:45 4.9 °F -0.3 °F 1030.7 in SW 2.6 mph 2.6 mph 69 % 0.0 in
10:50 4.7 °F -0.5 °F 1030.7 in WSW 1.9 mph 1.9 mph 69 % 0.0 in
10:55 4.8 °F -0.4 °F 1030.7 in WSW 1.9 mph   69 % 0.0 in
11:00 4.8 °F -0.4 °F 1032.1 in Calm     69 % 0.0 in
11:05 5.0 °F -0.2 °F 1032.1 in ENE 2.3 mph 2.3 mph 69 % 0.0 in
11:10 5.3 °F 0.1 °F 1032.1 in ESE 3.7 mph 3.7 mph 69 % 0.0 in
11:15 5.8 °F 0.6 °F 1030.7 in NNE 1.9 mph   69 % 0.0 in
11:20 6.4 °F 0.9 °F 1030.7 in East 3.2 mph 3.2 mph 68 % 0.0 in
11:25 6.8 °F 1.3 °F 1030.7 in East 3.9 mph 3.9 mph 68 % 0.0 in
11:30 6.5 °F 0.6 °F 1030.7 in ENE 5.6 mph 5.6 mph 66 % 0.0 in
11:35 6.9 °F 1.2 °F 1030.7 in ENE 3.9 mph 3.9 mph 67 % 0.0 in
11:40 7.0 °F 1.1 °F 1030.7 in East 5.0 mph 5.0 mph 66 % 0.0 in
11:45 7.3 °F 1.4 °F 1030.0 in East 3.7 mph 3.7 mph 66 % 0.0 in
11:50 7.8 °F 1.8 °F 1030.0 in Calm   3.2 mph 66 % 0.0 in
11:55 8.0 °F 1.8 °F 1030.0 in NNE 3.9 mph 3.9 mph 65 % 0.0 in
12:00 8.3 °F 1.9 °F 1030.7 in NNE 1.9 mph   64 % 0.0 in
12:05 8.5 °F 2.1 °F 1030.7 in NE 3.2 mph 3.2 mph 64 % 0.0 in
12:10 8.7 °F 2.1 °F 1030.7 in ENE 3.7 mph 3.7 mph 63 % 0.0 in
12:15 8.7 °F 2.1 °F 1030.0 in NNE 3.7 mph 3.7 mph 63 % 0.0 in
12:20 9.0 °F 2.3 °F 1030.0 in NNE 3.7 mph 3.7 mph 63 % 0.0 in
12:25 9.0 °F 2.3 °F 1030.0 in NNE 3.7 mph 3.7 mph 63 % 0.0 in
12:30 9.3 °F 2.4 °F 1030.0 in ENE 3.7 mph 3.7 mph 62 % 0.0 in
12:35 9.4 °F 2.5 °F 1030.0 in NE 4.2 mph 4.2 mph 62 % 0.0 in
12:40 9.4 °F 2.3 °F 1030.0 in NNW 3.7 mph 3.7 mph 61 % 0.0 in
12:45 9.7 °F 2.6 °F 1030.0 in ENE 4.7 mph 4.7 mph 61 % 0.0 in
12:50 9.7 °F 2.6 °F 1030.0 in NE 7.4 mph 7.4 mph 61 % 0.0 in
12:55 9.8 °F 2.6 °F 1030.0 in NNE 5.6 mph 5.6 mph 61 % 0.0 in
13:00 10.0 °F 2.6 °F 1030.0 in NE 5.6 mph 5.6 mph 60 % 0.0 in
13:05 10.3 °F 2.9 °F 1030.0 in NE 5.0 mph 5.0 mph 60 % 0.0 in
13:10 10.3 °F 2.9 °F 1030.0 in NNE 7.4 mph 7.4 mph 60 % 0.0 in
13:15 10.3 °F 2.6 °F 1029.0 in NNE 7.4 mph 7.4 mph 59 % 0.0 in
13:20 10.3 °F 2.6 °F 1029.0 in NNE 7.4 mph 7.4 mph 59 % 0.0 in
13:25 10.3 °F 2.6 °F 1029.0 in ENE 6.1 mph 6.1 mph 59 % 0.0 in
13:30 10.3 °F 2.4 °F 1029.0 in NNE 6.4 mph 6.4 mph 58 % 0.0 in
13:35 10.4 °F 2.5 °F 1029.0 in ENE 7.4 mph 7.4 mph 58 % 0.0 in
13:40 10.7 °F 2.8 °F 1029.0 in ENE 3.7 mph 3.7 mph 58 % 0.0 in
13:45 11.0 °F 3.1 °F 1029.0 in ENE 3.7 mph 3.7 mph 58 % 0.0 in
13:50 11.2 °F 3.2 °F 1029.0 in NNE 5.6 mph 5.6 mph 58 % 0.0 in
13:55 11.3 °F 3.3 °F 1029.0 in ENE 3.7 mph 3.7 mph 58 % 0.0 in
14:00 11.3 °F 3.3 °F 1028.0 in North 3.7 mph 4.2 mph 58 % 0.0 in
14:05 11.4 °F 3.4 °F 1028.0 in NNE 3.7 mph 3.7 mph 58 % 0.0 in
14:10 11.4 °F 3.4 °F 1028.0 in NNE 3.7 mph 3.7 mph 58 % 0.0 in
14:15 11.5 °F 3.5 °F 1028.0 in NNE 5.6 mph 5.6 mph 58 % 0.0 in
14:25 11.5 °F 3.5 °F 1028.0 in NE 6.4 mph 6.4 mph 58 % 0.0 in
14:30 11.4 °F 3.2 °F 1028.0 in NNE 3.9 mph 3.9 mph 57 % 0.0 in
14:35 11.4 °F 3.4 °F 1028.0 in NE 3.2 mph 4.8 mph 58 % 0.0 in
14:40 11.2 °F 3.0 °F 1028.0 in NNE 5.6 mph 5.6 mph 57 % 0.0 in
14:45 11.1 °F 2.9 °F 1028.0 in NE 3.7 mph 3.7 mph 57 % 0.0 in
14:55 11.2 °F 3.0 °F 1028.0 in NNE 4.7 mph 4.7 mph 57 % 0.0 in
15:00 11.3 °F 3.1 °F 1028.0 in NE 1.6 mph 6.4 mph 57 % 0.0 in
15:05 11.4 °F 3.2 °F 1028.0 in ENE 3.7 mph 3.7 mph 57 % 0.0 in
15:10 11.6 °F 3.4 °F 1028.0 in NNE 1.9 mph 1.9 mph 57 % 0.0 in
15:15 11.7 °F 3.4 °F 1028.0 in NNE 4.8 mph 4.8 mph 57 % 0.0 in
15:20 11.8 °F 3.6 °F 1028.0 in NE 5.6 mph 5.6 mph 57 % 0.0 in
15:25 11.8 °F 3.6 °F 1028.0 in NNE 3.7 mph 3.7 mph 57 % 0.0 in
15:30 11.9 °F 3.7 °F 1028.0 in NNE 1.6 mph 3.2 mph 57 % 0.0 in
15:35 11.8 °F 3.6 °F 1028.0 in ENE 4.2 mph 4.2 mph 57 % 0.0 in
15:40 11.8 °F 3.3 °F 1028.0 in NNE 4.7 mph 4.7 mph 56 % 0.0 in
15:45 11.8 °F 3.6 °F 1028.0 in NE 1.6 mph 4.8 mph 57 % 0.0 in
15:50 11.8 °F 3.6 °F 1028.0 in NW 3.7 mph 3.7 mph 57 % 0.0 in
16:00 11.7 °F 3.4 °F 1028.0 in NNE 1.9 mph 1.9 mph 57 % 0.0 in
16:05 11.6 °F 3.4 °F 1028.0 in North 1.9 mph   57 % 0.0 in
16:10 11.6 °F 3.1 °F 1028.0 in Calm     56 % 0.0 in
16:20 11.5 °F 3.3 °F 1028.0 in West 1.9 mph   57 % 0.0 in
16:30 11.2 °F 2.7 °F 1028.0 in NNE 3.7 mph 3.7 mph 56 % 0.0 in
16:35 11.1 °F 2.7 °F 1028.0 in North 1.9 mph 1.9 mph 56 % 0.0 in
16:40 11.1 °F 2.9 °F 1028.0 in Calm     57 % 0.0 in
16:45 11.1 °F 2.9 °F 1028.0 in NNW 1.9 mph   57 % 0.0 in
16:50 11.0 °F 2.6 °F 1028.0 in NNE 3.7 mph   56 % 0.0 in
16:55 10.8 °F 2.4 °F 1028.0 in North 1.4 mph   56 % 0.0 in
17:00 10.7 °F 2.3 °F 1028.0 in Calm     56 % 0.0 in
17:05 10.6 °F 2.2 °F 1028.0 in NW 1.9 mph   56 % 0.0 in
17:10 10.6 °F 2.2 °F 1028.0 in NNE 1.9 mph 1.9 mph 56 % 0.0 in
17:15 10.5 °F 2.1 °F 1028.0 in ENE 1.9 mph   56 % 0.0 in
17:20 10.4 °F 2.0 °F 1028.0 in North 1.9 mph   56 % 0.0 in
17:30 10.3 °F 1.9 °F 1028.0 in Calm     56 % 0.0 in
17:35 10.1 °F 1.7 °F 1028.0 in West 3.7 mph 3.7 mph 56 % 0.0 in
17:40 9.9 °F 1.5 °F 1028.0 in West 3.7 mph 3.7 mph 56 % 0.0 in
17:45 9.7 °F 1.6 °F 1028.0 in WSW 3.7 mph 3.7 mph 57 % 0.0 in
17:55 9.7 °F 1.6 °F 1028.0 in Calm     57 % 0.0 in
18:00 9.7 °F 1.6 °F 1028.0 in West 3.7 mph 3.7 mph 57 % 0.0 in
18:05 9.8 °F 1.7 °F 1028.0 in West 1.9 mph   57 % 0.0 in
18:10 9.8 °F 1.4 °F 1028.0 in WSW 3.7 mph   56 % 0.0 in
18:15 9.7 °F 1.3 °F 1028.0 in Calm     56 % 0.0 in
18:20 9.6 °F 1.2 °F 1028.0 in SW 2.6 mph 2.6 mph 56 % 0.0 in
18:25 9.4 °F 1.1 °F 1028.0 in SW 3.7 mph 3.7 mph 56 % 0.0 in
18:30 9.2 °F 0.9 °F 1028.0 in West 3.7 mph 3.7 mph 56 % 0.0 in
18:35 9.3 °F 0.9 °F 1028.0 in West 3.7 mph 3.7 mph 56 % 0.0 in
18:40 9.4 °F 1.1 °F 1028.0 in West 3.7 mph 3.7 mph 56 % 0.0 in
18:45 9.4 °F 1.1 °F 1028.0 in West 3.7 mph 3.7 mph 56 % 0.0 in
18:50 9.4 °F 1.1 °F 1028.0 in SW 2.3 mph 2.3 mph 56 % 0.0 in
18:55 9.2 °F 0.6 °F 1028.0 in SW 1.9 mph   55 % 0.0 in
19:00 9.1 °F 0.5 °F 1027.0 in Calm     55 % 0.0 in
19:05 8.9 °F 0.3 °F 1027.0 in SW 1.4 mph   55 % 0.0 in
19:20 8.6 °F 0.3 °F 1028.0 in SW 2.3 mph 2.6 mph 56 % 0.0 in
19:25 8.5 °F -0.1 °F 1028.0 in Calm     55 % 0.0 in
19:30 8.5 °F -0.1 °F 1027.0 in Calm     55 % 0.0 in
19:35 8.5 °F -0.1 °F 1027.0 in SW 3.7 mph 3.7 mph 55 % 0.0 in
19:40 8.4 °F -0.1 °F 1027.0 in WSW 3.7 mph 3.7 mph 55 % 0.0 in
19:45 8.4 °F -0.1 °F 1027.0 in WSW 3.7 mph 3.7 mph 55 % 0.0 in
19:50 8.4 °F -0.1 °F 1027.0 in WSW 3.7 mph 3.7 mph 55 % 0.0 in
19:55 3.4 °F -3.7 °F 1024.9 in SSW 3.2 mph 3.2 mph 60 % 0.0 in
20:00 8.2 °F -0.3 °F 1027.0 in WSW 3.7 mph 3.7 mph 55 % 0.0 in
20:05 8.2 °F -0.3 °F 1027.0 in WSW 1.9 mph 1.9 mph 55 % 0.0 in
20:15 3.3 °F -3.7 °F 1024.9 in West 1.6 mph 3.2 mph 60 % 0.0 in
20:20 8.1 °F -0.4 °F 1027.0 in West 3.7 mph 3.7 mph 55 % 0.0 in
20:25 7.9 °F -0.6 °F 1027.0 in SW 3.7 mph 3.7 mph 55 % 0.0 in
20:30 7.6 °F -0.9 °F 1027.0 in WSW 3.7 mph 3.7 mph 55 % 0.0 in
20:35 7.5 °F -0.9 °F 1027.0 in Calm     55 % 0.0 in
20:40 7.5 °F -0.9 °F 1027.0 in Calm     55 % 0.0 in
20:45 7.4 °F -1.1 °F 1028.0 in SW 3.7 mph 3.7 mph 55 % 0.0 in
20:50 7.4 °F -1.1 °F 1028.0 in West 2.6 mph 2.6 mph 55 % 0.0 in
20:55 7.4 °F -1.1 °F 1028.0 in WSW 3.7 mph 3.7 mph 55 % 0.0 in
21:00 7.3 °F -1.2 °F 1027.0 in West 1.9 mph 1.9 mph 55 % 0.0 in
21:05 3.4 °F -3.4 °F 1023.9 in Calm     61 % 0.0 in
21:10 7.0 °F -1.4 °F 1027.0 in Calm     55 % 0.0 in
21:15 7.0 °F -1.4 °F 1027.0 in WNW 2.3 mph   55 % 0.0 in
21:25 3.1 °F -3.7 °F 1023.9 in WSW 1.6 mph 3.2 mph 61 % 0.0 in
21:30 6.8 °F -1.6 °F 1027.0 in SW 3.7 mph 3.7 mph 55 % 0.0 in
21:35 6.7 °F -1.7 °F 1027.0 in WSW 3.7 mph 3.7 mph 55 % 0.0 in
21:40 6.7 °F -1.7 °F 1027.0 in WSW 3.7 mph 3.7 mph 55 % 0.0 in
21:45 6.5 °F -1.9 °F 1027.0 in WSW 3.5 mph 3.5 mph 55 % 0.0 in
21:50 6.4 °F -2.0 °F 1027.0 in Calm     55 % 0.0 in
21:55 6.4 °F -2.0 °F 1027.0 in Calm     55 % 0.0 in
22:00 6.2 °F -2.2 °F 1027.0 in SW 2.3 mph 2.3 mph 55 % 0.0 in
22:05 6.1 °F -2.3 °F 1027.0 in SW 1.9 mph 1.9 mph 55 % 0.0 in
22:10 6.0 °F -2.1 °F 1027.0 in Calm     56 % 0.0 in
22:15 3.7 °F -3.8 °F 1023.9 in NNE 1.6 mph 3.2 mph 58 % 0.0 in
22:20 5.9 °F -2.2 °F 1027.0 in SW 1.9 mph 1.9 mph 56 % 0.0 in
22:25 5.8 °F -2.3 °F 1027.0 in Calm     56 % 0.0 in
22:30 5.8 °F -2.3 °F 1027.0 in SW 1.9 mph   56 % 0.0 in
22:35 5.7 °F -2.4 °F 1027.0 in SW 3.7 mph 3.7 mph 56 % 0.0 in
22:40 5.6 °F -2.3 °F 1027.0 in Calm     57 % 0.0 in
22:45 2.7 °F -4.3 °F 1023.9 in WSW 3.2 mph 3.2 mph 60 % 0.0 in
22:50 5.8 °F -2.3 °F 1026.0 in West 3.7 mph 3.7 mph 56 % 0.0 in
22:55 5.6 °F -2.5 °F 1026.0 in West 1.4 mph   56 % 0.0 in
23:05 5.6 °F -2.5 °F 1026.0 in West 2.6 mph 2.6 mph 56 % 0.0 in
23:10 5.8 °F -2.3 °F 1026.0 in West 2.3 mph 2.3 mph 56 % 0.0 in
23:15 5.6 °F -2.5 °F 1026.0 in West 3.7 mph 3.7 mph 56 % 0.0 in
23:25 5.7 °F -2.4 °F 1026.0 in NW 1.9 mph 1.9 mph 56 % 0.0 in
23:30 5.7 °F -2.4 °F 1026.0 in Calm     56 % 0.0 in
23:35 5.6 °F -2.5 °F 1026.0 in NNE 5.6 mph 5.6 mph 56 % 0.0 in
23:40 5.4 °F -2.7 °F 1026.0 in NNW 2.3 mph   56 % 0.0 in
23:45 5.5 °F -2.6 °F 1026.0 in WNW 1.9 mph 1.9 mph 56 % 0.0 in
23:55 5.2 °F -2.9 °F 1026.0 in Calm     56 % 0.0 in
Meteo Sesrovires
Elogis d' Weather Underground - 1.5 mb

Guio original per  Jim McMurry - jmcmurry@mwt.net Adaptat per a la plantilla per  Wim van der Kuil - Leuven-Template.eu

Trobareu la nostra informacio del temps tambe a:

Weather Underground

AWEKAS